createdAt,value
2022-11-27T15:53:26.253Z,15.10
2022-11-27T15:55:56.617Z,18.15
2022-11-27T15:58:43.962Z,19.17
2022-11-27T16:01:44.924Z,18.60
2022-11-27T16:04:25.463Z,19.27
2022-11-27T16:06:52.891Z,17.38
2022-11-27T16:09:20.050Z,21.00
2022-11-27T16:11:47.078Z,20.05
2022-11-27T16:14:14.238Z,21.25
2022-11-27T16:16:43.476Z,18.30
2022-11-27T16:19:12.430Z,22.38
2022-11-27T16:21:39.510Z,20.65
2022-11-27T16:24:08.568Z,21.30
2022-11-27T16:26:37.083Z,22.50
2022-11-27T16:29:05.917Z,22.55
2022-11-27T16:31:33.468Z,19.95
2022-11-27T16:34:23.106Z,21.23
2022-11-27T16:37:24.796Z,20.88
2022-11-27T16:40:06.225Z,22.77
2022-11-27T16:42:54.620Z,22.52
2022-11-27T16:45:39.732Z,22.27
2022-11-27T16:48:26.891Z,23.50
2022-11-27T16:51:10.250Z,23.95
2022-11-27T16:53:40.977Z,28.17
2022-11-27T16:56:10.086Z,29.50
2022-11-27T16:59:02.756Z,29.00
2022-11-27T17:02:03.954Z,27.95
2022-11-27T17:04:44.577Z,27.17
2022-11-27T17:07:11.634Z,29.33
2022-11-27T17:09:39.226Z,31.17
2022-11-27T17:12:26.562Z,27.58
2022-11-27T17:15:17.053Z,24.13
2022-11-27T17:18:04.997Z,28.80
2022-11-27T17:20:45.613Z,32.38
2022-11-27T17:23:13.134Z,31.27
2022-11-27T17:25:43.433Z,33.38
2022-11-27T17:28:11.143Z,34.13
2022-11-27T17:30:39.973Z,32.95
2022-11-27T17:33:27.934Z,29.15
2022-11-27T17:36:09.458Z,28.35
2022-11-27T17:38:37.136Z,29.52
2022-11-27T17:41:20.088Z,31.83
2022-11-27T17:44:21.913Z,30.90
2022-11-27T17:47:23.975Z,35.88
2022-11-27T17:50:11.688Z,30.67
2022-11-27T17:52:38.673Z,30.75
2022-11-27T17:55:08.340Z,37.78
2022-11-27T17:57:35.929Z,35.97
2022-11-27T18:00:04.621Z,35.13
2022-11-27T18:02:41.924Z,30.60
2022-11-27T18:05:09.744Z,30.77
2022-11-27T18:07:37.761Z,32.30
2022-11-27T18:10:06.147Z,29.17
2022-11-27T18:12:33.644Z,33.67
2022-11-27T18:15:21.938Z,33.25
2022-11-27T18:18:23.063Z,35.08
2022-11-27T18:21:30.983Z,39.00
2022-11-27T18:24:23.045Z,38.88
2022-11-27T18:27:07.788Z,34.40
2022-11-27T18:32:04.064Z,32.60
2022-11-27T18:34:50.937Z,31.40
2022-11-27T18:37:33.253Z,34.47
2022-11-27T18:40:00.746Z,37.55
2022-11-27T18:42:47.900Z,37.67
2022-11-27T18:45:50.007Z,36.15
2022-11-27T18:48:31.358Z,38.75
2022-11-27T19:00:21.932Z,50.40
2022-11-27T19:03:23.007Z,66.30
2022-11-27T19:06:26.980Z,67.28
2022-11-27T19:09:07.983Z,68.75
2022-11-27T19:11:35.497Z,62.28
2022-11-27T19:14:22.951Z,55.88
2022-11-27T19:17:04.056Z,53.25
2022-11-27T19:22:21.151Z,54.15
2022-11-27T19:24:49.221Z,60.05
2022-11-27T19:27:16.532Z,60.08
2022-11-27T19:29:44.195Z,51.53
2022-11-27T19:32:12.315Z,46.83
2022-11-27T19:34:39.608Z,54.33
2022-11-27T19:37:07.760Z,50.65
2022-11-27T19:39:34.765Z,54.97
2022-11-27T19:42:21.981Z,55.15
2022-11-27T19:45:22.966Z,54.78
2022-11-27T19:48:23.927Z,65.97
2022-11-27T19:51:04.608Z,52.20
2022-11-27T19:53:32.178Z,49.78
2022-11-27T19:56:21.063Z,51.25
2022-11-27T19:59:03.075Z,54.22
2022-11-27T20:01:30.380Z,57.95
2022-11-27T20:03:58.497Z,57.67
2022-11-27T20:06:27.999Z,59.40
2022-11-27T20:09:01.153Z,60.72
2022-11-27T20:11:34.602Z,57.00
2022-11-27T20:14:06.999Z,62.97
2022-11-27T20:16:54.016Z,64.95
2022-11-27T20:19:55.007Z,56.85
2022-11-27T20:22:57.344Z,58.30
2022-11-27T20:25:42.266Z,56.80
2022-11-27T20:28:10.769Z,54.72
2022-11-27T20:30:42.145Z,52.83
2022-11-27T20:33:09.973Z,57.42
2022-11-27T20:35:41.643Z,48.00
2022-11-27T20:38:08.927Z,48.15
2022-11-27T20:40:51.987Z,49.80
2022-11-27T20:43:54.865Z,50.22
2022-11-27T20:46:57.158Z,44.38
2022-11-27T20:49:58.214Z,45.72
2022-11-27T20:52:34.563Z,45.97
2022-11-27T20:55:02.085Z,45.70
2022-11-27T20:57:30.728Z,42.67
2022-11-27T20:59:58.592Z,49.03
2022-11-27T21:02:25.815Z,44.60
2022-11-27T21:04:52.727Z,44.17
2022-11-27T21:07:20.842Z,48.13
2022-11-27T21:09:47.897Z,44.05
2022-11-27T21:12:15.771Z,50.40
2022-11-27T21:14:45.692Z,46.10
2022-11-27T21:17:32.976Z,45.67
2022-11-27T21:20:35.030Z,46.95
2022-11-27T21:23:15.813Z,47.00
2022-11-27T21:25:43.657Z,48.35
2022-11-27T21:28:10.874Z,45.28
2022-11-27T21:30:38.233Z,42.95
2022-11-27T21:33:06.534Z,44.38
2022-11-27T21:35:36.758Z,44.05
2022-11-27T21:38:08.657Z,41.65
2022-11-27T21:40:51.854Z,48.20
2022-11-27T21:43:50.119Z,42.75
2022-11-27T21:49:09.589Z,32.90
2022-11-27T21:52:09.975Z,30.77
2022-11-27T21:55:12.468Z,28.63
2022-11-27T21:58:13.035Z,25.27
2022-11-27T22:00:53.728Z,25.40
2022-11-27T22:03:20.752Z,23.63
2022-11-27T22:05:48.009Z,21.02
2022-11-27T22:08:15.295Z,27.00
2022-11-27T22:10:42.362Z,31.33
2022-11-27T22:13:09.829Z,40.70
2022-11-27T22:15:37.081Z,41.00
2022-11-27T22:18:04.183Z,39.08
2022-11-27T22:20:31.928Z,43.90
2022-11-27T22:22:59.134Z,41.53
2022-11-27T22:25:27.014Z,47.05
2022-11-27T22:27:55.213Z,50.40
2022-11-27T22:30:24.455Z,48.75
2022-11-27T22:32:56.293Z,49.60
2022-11-27T22:35:24.027Z,47.97
2022-11-27T22:37:54.740Z,47.28
2022-11-27T22:40:23.009Z,46.72
2022-11-27T22:43:10.076Z,48.17
2022-11-27T22:46:11.107Z,45.60
2022-11-27T22:49:14.017Z,47.58
2022-11-27T22:52:08.064Z,41.45
2022-11-27T22:57:50.021Z,42.42
2022-11-27T23:00:30.748Z,38.92
2022-11-27T23:02:57.948Z,39.15
2022-11-27T23:05:25.082Z,41.40
2022-11-27T23:07:52.269Z,39.47
2022-11-27T23:10:19.229Z,41.38
2022-11-27T23:12:46.435Z,41.33
2022-11-27T23:15:13.439Z,41.25
2022-11-27T23:17:40.396Z,43.70
2022-11-27T23:20:08.255Z,45.63
2022-11-27T23:22:55.275Z,46.10
2022-11-27T23:25:35.730Z,42.00
2022-11-27T23:28:03.810Z,41.67
2022-11-27T23:30:33.119Z,38.97
2022-11-27T23:33:00.658Z,37.05
2022-11-27T23:35:28.285Z,39.53
2022-11-27T23:37:55.320Z,41.00
2022-11-27T23:40:22.293Z,40.30
2022-11-27T23:43:09.661Z,44.45
2022-11-27T23:45:49.685Z,42.00
2022-11-27T23:48:16.632Z,42.85
2022-11-27T23:50:43.988Z,42.08
2022-11-27T23:53:11.260Z,44.30
2022-11-27T23:55:58.088Z,42.88
2022-11-27T23:58:59.046Z,43.97
